createdAt,value
2022-12-03T00:00:01.410Z,1.10
2022-12-03T00:05:03.251Z,1.10
2022-12-03T00:10:06.021Z,1.10
2022-12-03T00:15:09.656Z,1.20
2022-12-03T00:20:21.626Z,1.20
2022-12-03T00:25:23.502Z,1.20
2022-12-03T00:30:25.391Z,1.20
2022-12-03T00:35:27.178Z,1.20
2022-12-03T00:40:28.986Z,1.20
2022-12-03T00:45:30.998Z,1.20
2022-12-03T00:50:32.878Z,1.30
2022-12-03T00:55:34.647Z,1.30
2022-12-03T01:00:36.942Z,1.30
2022-12-03T01:05:38.959Z,1.40
2022-12-03T01:10:40.762Z,1.40
2022-12-03T01:15:42.683Z,1.30
2022-12-03T01:20:44.705Z,1.30
2022-12-03T01:25:48.189Z,1.20
2022-12-03T01:31:08.634Z,1.30
2022-12-03T01:36:10.452Z,1.30
2022-12-03T01:41:12.326Z,1.40
2022-12-03T01:46:16.618Z,1.40
2022-12-03T01:51:18.908Z,1.40
2022-12-03T01:56:20.878Z,1.40
2022-12-03T02:01:22.771Z,1.30
2022-12-03T02:06:28.581Z,1.30
2022-12-03T02:11:33.451Z,1.30
2022-12-03T02:16:37.607Z,1.30
2022-12-03T02:22:06.847Z,1.40
2022-12-03T02:27:08.618Z,1.30
2022-12-03T02:32:10.502Z,1.30
2022-12-03T02:37:20.062Z,1.20
2022-12-03T02:42:37.691Z,1.20
2022-12-03T02:47:46.335Z,1.30
2022-12-03T02:52:48.599Z,1.30
2022-12-03T02:57:51.334Z,1.20
2022-12-03T03:02:53.230Z,1.20
2022-12-03T03:07:58.279Z,1.30
2022-12-03T03:13:09.304Z,1.20
2022-12-03T03:18:13.410Z,1.30
2022-12-03T03:23:20.556Z,1.30
2022-12-03T03:28:22.743Z,1.40
2022-12-03T03:33:24.986Z,1.40
2022-12-03T03:38:27.963Z,1.30
2022-12-03T03:43:30.913Z,1.30
2022-12-03T03:48:34.556Z,1.30
2022-12-03T03:53:42.831Z,1.30
2022-12-03T03:58:44.683Z,1.30
2022-12-03T04:03:46.649Z,1.20
2022-12-03T04:08:48.535Z,1.30
2022-12-03T04:13:50.314Z,1.30
2022-12-03T04:18:52.227Z,1.40
2022-12-03T04:23:54.083Z,1.30
2022-12-03T04:28:55.996Z,1.30
2022-12-03T04:34:16.146Z,1.40
2022-12-03T04:39:17.921Z,1.40
2022-12-03T04:44:37.814Z,1.40
2022-12-03T04:49:42.756Z,1.30
2022-12-03T04:54:44.985Z,1.30
2022-12-03T04:59:47.830Z,1.40
2022-12-03T05:04:49.621Z,1.30
2022-12-03T05:09:51.535Z,1.40
2022-12-03T05:14:53.724Z,1.40
2022-12-03T05:20:14.126Z,1.40
2022-12-03T05:25:16.005Z,1.40
2022-12-03T05:30:17.922Z,1.30
2022-12-03T05:35:19.878Z,1.30
2022-12-03T05:40:21.802Z,1.40
2022-12-03T05:45:27.862Z,1.40
2022-12-03T05:50:32.758Z,1.40
2022-12-03T05:55:48.661Z,1.40
2022-12-03T06:00:50.426Z,1.40
2022-12-03T06:05:52.230Z,1.30
2022-12-03T06:10:54.002Z,1.30
2022-12-03T06:15:55.864Z,1.30
2022-12-03T06:20:57.711Z,1.30
2022-12-03T06:25:59.469Z,1.30
2022-12-03T06:31:01.441Z,1.30
2022-12-03T06:36:03.300Z,1.30
2022-12-03T06:41:05.324Z,1.30
2022-12-03T06:46:07.113Z,1.30
2022-12-03T06:51:08.946Z,1.30
2022-12-03T06:56:10.834Z,1.30
2022-12-03T07:01:12.677Z,1.40
2022-12-03T07:06:14.981Z,1.40
2022-12-03T07:11:31.790Z,1.40
2022-12-03T07:16:35.079Z,1.30
2022-12-03T07:21:37.076Z,1.30
2022-12-03T07:26:39.099Z,1.30
2022-12-03T07:31:41.014Z,1.40
2022-12-03T07:36:42.892Z,1.40
2022-12-03T07:41:44.730Z,1.50
2022-12-03T07:46:46.561Z,1.50
2022-12-03T07:51:54.163Z,1.40
2022-12-03T07:57:01.159Z,1.40
2022-12-03T08:02:03.936Z,1.40
2022-12-03T08:07:06.293Z,1.40
2022-12-03T08:12:17.108Z,1.50
2022-12-03T08:17:19.836Z,1.60
2022-12-03T08:22:22.305Z,1.60
2022-12-03T08:27:24.188Z,1.60
2022-12-03T08:32:26.160Z,1.60
2022-12-03T08:37:29.755Z,1.70
2022-12-03T08:42:42.418Z,1.70
2022-12-03T08:47:44.283Z,1.60
2022-12-03T08:52:46.061Z,1.70
2022-12-03T08:57:47.832Z,1.70
2022-12-03T09:03:01.116Z,1.70
2022-12-03T09:08:03.079Z,1.80
2022-12-03T09:13:04.883Z,1.70
2022-12-03T09:18:07.578Z,1.70
2022-12-03T09:23:09.659Z,1.70
2022-12-03T09:28:11.447Z,1.70
2022-12-03T09:33:14.045Z,1.80
2022-12-03T09:38:15.859Z,1.80
2022-12-03T09:43:18.602Z,1.90
2022-12-03T09:48:21.249Z,1.90
2022-12-03T09:53:25.966Z,1.90
2022-12-03T09:58:43.177Z,2.00
2022-12-03T10:03:54.354Z,2.00
2022-12-03T10:08:56.739Z,2.00
2022-12-03T10:13:59.041Z,1.90
2022-12-03T10:19:01.491Z,1.80
2022-12-03T10:24:18.477Z,1.80
2022-12-03T10:29:34.236Z,1.80
2022-12-03T10:34:38.537Z,1.80
2022-12-03T10:40:00.324Z,1.80
2022-12-03T10:45:22.797Z,1.80
2022-12-03T10:50:24.623Z,1.80
2022-12-03T10:55:28.909Z,1.80
2022-12-03T11:00:30.683Z,1.80
2022-12-03T11:05:33.683Z,1.80
2022-12-03T11:10:35.840Z,1.80
2022-12-03T11:15:44.133Z,1.90
2022-12-03T11:20:45.927Z,1.80
2022-12-03T11:25:50.460Z,1.80
2022-12-03T11:30:53.325Z,1.90
2022-12-03T11:36:04.257Z,1.90
2022-12-03T11:41:18.077Z,1.90
2022-12-03T11:46:23.078Z,1.90
2022-12-03T11:51:27.613Z,1.90
2022-12-03T11:56:30.528Z,2.00
2022-12-03T12:01:39.111Z,2.00
2022-12-03T12:06:44.322Z,2.00
2022-12-03T12:11:46.150Z,2.00
2022-12-03T12:16:52.263Z,2.00
2022-12-03T12:21:54.515Z,2.10
2022-12-03T12:26:58.047Z,2.00
2022-12-03T12:32:08.859Z,2.10
2022-12-03T12:37:19.066Z,2.10
2022-12-03T12:42:35.218Z,2.10
2022-12-03T12:47:37.202Z,2.10
2022-12-03T12:52:49.118Z,2.10
2022-12-03T12:57:51.541Z,2.10
2022-12-03T13:03:01.365Z,2.10
2022-12-03T13:08:08.817Z,2.20
2022-12-03T13:13:20.524Z,2.20
2022-12-03T13:18:33.761Z,2.10
2022-12-03T13:23:35.642Z,2.00
2022-12-03T13:28:37.468Z,2.10
2022-12-03T13:33:39.358Z,2.10
2022-12-03T13:38:41.195Z,2.00
2022-12-03T13:43:44.420Z,1.90
2022-12-03T13:48:47.518Z,1.90
2022-12-03T13:53:49.351Z,1.90
2022-12-03T13:58:51.130Z,1.90
2022-12-03T14:03:52.979Z,2.00
2022-12-03T14:08:54.816Z,1.90
2022-12-03T14:13:56.599Z,1.90
2022-12-03T14:18:58.365Z,1.90
2022-12-03T14:24:00.224Z,1.90
2022-12-03T14:29:07.163Z,1.90
2022-12-03T14:34:10.463Z,1.90
2022-12-03T14:39:12.331Z,1.90
2022-12-03T14:44:14.223Z,1.90
2022-12-03T14:49:16.187Z,1.90
2022-12-03T14:54:17.974Z,1.90
2022-12-03T14:59:25.874Z,1.90
2022-12-03T15:04:29.326Z,1.90
2022-12-03T15:09:31.194Z,1.80
2022-12-03T15:14:33.015Z,1.80
2022-12-03T15:19:35.147Z,1.90
2022-12-03T15:24:36.947Z,1.90
2022-12-03T15:29:39.935Z,1.90
2022-12-03T15:34:41.678Z,1.90
2022-12-03T15:39:48.396Z,1.90
2022-12-03T15:44:50.338Z,1.90
2022-12-03T15:49:52.252Z,1.90
2022-12-03T15:54:55.234Z,1.80
2022-12-03T15:59:58.075Z,1.80
2022-12-03T16:05:01.538Z,1.70
2022-12-03T16:10:05.106Z,1.80
2022-12-03T16:15:07.319Z,1.90
2022-12-03T16:20:09.670Z,1.90
2022-12-03T16:25:11.602Z,1.90
2022-12-03T16:30:13.903Z,1.90
2022-12-03T16:35:15.802Z,1.90
2022-12-03T16:40:17.662Z,1.90
2022-12-03T16:45:33.066Z,1.90
2022-12-03T16:50:37.547Z,1.90
2022-12-03T16:55:39.377Z,1.80
2022-12-03T17:00:41.231Z,1.70
2022-12-03T17:05:43.422Z,1.80
2022-12-03T17:10:45.338Z,1.80
2022-12-03T17:15:47.160Z,1.80
2022-12-03T17:20:48.989Z,1.80
2022-12-03T17:25:50.766Z,1.70
2022-12-03T17:30:52.540Z,1.80
2022-12-03T17:35:54.378Z,1.80
2022-12-03T17:40:56.216Z,1.80
2022-12-03T17:46:00.016Z,1.90
2022-12-03T17:51:02.440Z,1.80
2022-12-03T17:56:04.847Z,1.80
2022-12-03T18:01:08.569Z,1.80
2022-12-03T18:06:10.384Z,1.80
2022-12-03T18:11:12.327Z,1.80
2022-12-03T18:16:15.344Z,1.80
2022-12-03T18:21:17.266Z,1.70
2022-12-03T18:26:19.048Z,1.70
2022-12-03T18:31:22.160Z,1.60
2022-12-03T18:36:26.930Z,1.60
2022-12-03T18:41:29.074Z,1.60
2022-12-03T18:46:52.345Z,1.60
2022-12-03T18:51:58.889Z,1.70
2022-12-03T18:57:00.922Z,1.70
2022-12-03T19:02:02.826Z,1.70
2022-12-03T19:07:04.869Z,1.70
2022-12-03T19:12:12.837Z,1.70
2022-12-03T19:17:16.357Z,1.70
2022-12-03T19:22:18.138Z,1.70
2022-12-03T19:27:19.929Z,1.70
2022-12-03T19:32:21.698Z,1.70
2022-12-03T19:37:23.466Z,1.70
2022-12-03T19:42:25.324Z,1.70
2022-12-03T19:47:27.174Z,1.70
2022-12-03T19:52:28.968Z,1.60
2022-12-03T19:57:30.735Z,1.60
2022-12-03T20:02:32.566Z,1.50
2022-12-03T20:07:34.433Z,1.60
2022-12-03T20:12:36.262Z,1.60
2022-12-03T20:17:38.018Z,1.60
2022-12-03T20:22:39.876Z,1.60
2022-12-03T20:27:41.803Z,1.60
2022-12-03T20:32:45.661Z,1.60
2022-12-03T20:37:47.646Z,1.70
2022-12-03T20:42:49.401Z,1.60
2022-12-03T20:47:51.201Z,1.70
2022-12-03T20:53:22.556Z,1.60
2022-12-03T20:58:15.023Z,1.60
2022-12-03T21:03:17.151Z,1.40
2022-12-03T21:08:39.279Z,1.40
2022-12-03T21:13:44.156Z,1.20
2022-12-03T21:18:46.572Z,1.10
2022-12-03T21:23:48.395Z,1.10
2022-12-03T21:28:52.595Z,1.10
2022-12-03T21:33:55.588Z,1.10
2022-12-03T21:38:57.390Z,1.10
2022-12-03T21:44:00.465Z,1.10
2022-12-03T21:49:02.404Z,1.10
2022-12-03T21:54:05.029Z,1.10
2022-12-03T21:59:07.375Z,0.90
2022-12-03T22:04:09.205Z,0.80
2022-12-03T22:09:11.045Z,0.80
2022-12-03T22:14:13.426Z,0.90
2022-12-03T22:19:15.198Z,0.90
2022-12-03T22:24:18.865Z,1.00
2022-12-03T22:29:20.685Z,1.00
2022-12-03T22:34:22.486Z,1.10
2022-12-03T22:39:24.491Z,1.10
2022-12-03T22:44:26.406Z,1.10
2022-12-03T22:49:28.376Z,1.20
2022-12-03T22:54:30.257Z,1.20
2022-12-03T22:59:32.127Z,1.20
2022-12-03T23:04:34.012Z,1.20
2022-12-03T23:09:35.893Z,1.20
2022-12-03T23:14:37.651Z,1.10
2022-12-03T23:19:39.428Z,1.10
2022-12-03T23:24:41.258Z,1.20
2022-12-03T23:29:43.046Z,1.10
2022-12-03T23:34:44.896Z,1.10
2022-12-03T23:39:49.678Z,1.00
2022-12-03T23:44:51.582Z,0.90
2022-12-03T23:49:53.727Z,0.80
2022-12-03T23:54:55.668Z,0.70
2022-12-03T23:59:57.711Z,0.60
